Berwind, West Virginia
Current Conditions -  °F | °C
As of 4:55 AM on Sunday 21 Dec 2014 (Local Time) from KJFZ Reporting Station
Overcast Overcast  
Wind Chill: 32°   Ceiling: 1100
Heat Index: 32°   Visibility: 7mi
Dew Point: 31°   Wind: 0mph
Humidity: 94%   Direction: NA
Pressure: 30.18"   Gusts: NA
Location:  37.27°N, 81.67°W
Report Text: KJFZ 210955Z AUTO 00000KT 7SM OVC011 00/M01 A3018 RMK AO2 T00011007
Loading
Personal Weather Stations






























Interactive Weather Map New forecast layout! Learn more

10-Day Weather Forecast

Advertisements
Track Severe Weather on mobile